Time;durP1;ratioP1;P1;durP2;ratioP2;P2;SDS_P1;SDS_P2;PMS_P1;PMS_P2;Temp;Humidity;BMP_temperature;BMP_pressure;BME280_temperature;BME280_humidity;BME280_pressure;Samples;Min_cycle;Max_cycle;Signal;HPM_P1;HPM_P2
2024/02/21 00:01:57;;;;;;;;;;;15.70;85.30;;;;;;4063357;29;20390;-58
2024/02/21 00:04:38;;;;;;;;;;;15.70;85.30;;;;;;4077127;28;20368;-60
2024/02/21 00:07:19;;;;;;;;;;;15.70;85.50;;;;;;4076801;29;19949;-62
2024/02/21 00:10:00;;;;;;;;;;;15.60;86.30;;;;;;4076791;29;20030;-61
2024/02/21 00:12:41;;;;;;;;;;;15.60;85.40;;;;;;4077096;29;19929;-62
2024/02/21 00:15:23;;;;;;;;;;;15.60;85.40;;;;;;4076399;29;19981;-61
2024/02/21 00:18:04;;;;;;;;;;;15.60;85.60;;;;;;4077411;29;19965;-61
2024/02/21 00:20:45;;;;;;;;;;;15.60;85.50;;;;;;4087153;28;19934;-60
2024/02/21 00:23:26;;;;;;;;;;;15.60;85.60;;;;;;4076662;29;19979;-60
2024/02/21 00:26:07;;;;;;;;;;;15.60;85.60;;;;;;4076622;29;20296;-61
2024/02/21 00:28:48;;;;;;;;;;;15.60;86.60;;;;;;4076827;29;20454;-61
2024/02/21 00:31:30;;;;;;;;;;;15.60;85.80;;;;;;4076597;29;19933;-61
2024/02/21 00:34:12;;;;;;;;;;;15.60;85.80;;;;;;4076471;29;19934;-61
2024/02/21 00:36:53;;;;;;;;;;;15.60;85.90;;;;;;4076852;29;20465;-61
2024/02/21 00:39:34;;;;;;;;;;;15.50;85.90;;;;;;4076723;29;19933;-60
2024/02/21 00:42:14;;;;;;;;;;;15.50;85.90;;;;;;4041820;29;19991;-51
2024/02/21 00:44:55;;;;;;;;;;;15.50;85.90;;;;;;4071906;29;19929;-52
2024/02/21 00:47:37;;;;;;;;;;;15.50;86.00;;;;;;4076256;29;19929;-52
2024/02/21 00:50:18;;;;;;;;;;;15.50;86.00;;;;;;4076620;29;20062;-49
2024/02/21 00:52:59;;;;;;;;;;;15.50;86.20;;;;;;4076311;29;19930;-49
2024/02/21 00:55:40;;;;;;;;;;;15.50;86.20;;;;;;4076479;29;19933;-49
2024/02/21 00:58:20;;;;;;;;;;;15.50;86.30;;;;;;4060674;29;19965;-60
2024/02/21 01:01:01;;;;;;;;;;;15.50;86.30;;;;;;4060741;29;19930;-61
2024/02/21 01:03:43;;;;;;;;;;;15.50;86.40;;;;;;4059859;29;20003;-60
2024/02/21 01:06:24;;;;;;;;;;;15.50;86.30;;;;;;4061983;29;20644;-49
2024/02/21 01:09:05;;;;;;;;;;;15.50;86.40;;;;;;4074493;29;19973;-49
2024/02/21 01:11:46;;;;;;;;;;;15.40;86.40;;;;;;4075582;29;19929;-52
2024/02/21 01:14:27;;;;;;;;;;;15.40;86.50;;;;;;4076243;29;19937;-53
2024/02/21 01:17:08;;;;;;;;;;;15.40;86.50;;;;;;4075830;29;19933;-50
2024/02/21 01:19:50;;;;;;;;;;;15.40;86.50;;;;;;4076224;29;20062;-52
2024/02/21 01:22:31;;;;;;;;;;;15.40;86.60;;;;;;4075787;29;20292;-51
2024/02/21 01:25:11;;;;;;;;;;;15.40;86.70;;;;;;4076321;29;19929;-52
2024/02/21 01:27:53;;;;;;;;;;;15.40;86.70;;;;;;4060006;29;19950;-51
2024/02/21 01:30:33;;;;;;;;;;;15.40;86.80;;;;;;4059841;29;19945;-49
2024/02/21 01:33:14;;;;;;;;;;;15.40;86.80;;;;;;4059628;29;19934;-51
2024/02/21 01:35:56;;;;;;;;;;;15.40;87.70;;;;;;4064797;29;20537;-49
2024/02/21 01:38:37;;;;;;;;;;;15.40;86.90;;;;;;4058636;29;19934;-51
2024/02/21 01:41:17;;;;;;;;;;;15.40;86.90;;;;;;4059417;29;19930;-52
2024/02/21 01:43:58;;;;;;;;;;;15.40;87.00;;;;;;4058835;29;19977;-48
2024/02/21 01:46:39;;;;;;;;;;;15.40;88.00;;;;;;4061021;29;20002;-50
2024/02/21 01:49:20;;;;;;;;;;;15.40;87.20;;;;;;4075515;29;19973;-50
2024/02/21 01:52:03;;;;;;;;;;;15.50;87.10;;;;;;4075188;29;20385;-59
2024/02/21 01:54:44;;;;;;;;;;;15.50;86.90;;;;;;4075367;29;19933;-59
2024/02/21 01:57:25;;;;;;;;;;;15.50;86.60;;;;;;4059526;29;19942;-60
2024/02/21 02:00:06;;;;;;;;;;;15.60;86.60;;;;;;4059017;29;19941;-60
2024/02/21 02:02:50;;;;;;;;;;;15.60;87.40;;;;;;4058868;29;20474;-60
2024/02/21 02:05:31;;;;;;;;;;;15.50;86.40;;;;;;4073713;29;19929;-59
2024/02/21 02:08:13;;;;;;;;;;;15.50;86.40;;;;;;4074450;29;20640;-59
2024/02/21 02:10:53;;;;;;;;;;;15.60;86.70;;;;;;4075026;29;20066;-59
2024/02/21 02:13:34;;;;;;;;;;;15.60;86.50;;;;;;4085285;28;19929;-59
2024/02/21 02:16:15;;;;;;;;;;;15.60;86.40;;;;;;4074524;29;19977;-59
2024/02/21 02:18:56;;;;;;;;;;;15.70;86.30;;;;;;4075201;29;20391;-59
2024/02/21 02:21:40;;;;;;;;;;;15.70;86.30;;;;;;4075445;29;19929;-59
2024/02/21 02:24:24;;;;;;;;;;;15.80;86.10;;;;;;4074828;29;20025;-59
2024/02/21 02:27:05;;;;;;;;;;;15.90;85.70;;;;;;4074831;29;19946;-59
2024/02/21 02:29:46;;;;;;;;;;;16.00;85.30;;;;;;4074590;29;19929;-60
2024/02/21 02:32:26;;;;;;;;;;;16.10;85.90;;;;;;4059406;29;20497;-60
2024/02/21 02:35:07;;;;;;;;;;;16.20;84.90;;;;;;4058874;29;19950;-60
2024/02/21 02:37:51;;;;;;;;;;;16.10;84.80;;;;;;4058960;29;20026;-59
2024/02/21 02:40:34;;;;;;;;;;;16.10;84.70;;;;;;4058641;29;19934;-59
2024/02/21 02:43:15;;;;;;;;;;;16.10;84.70;;;;;;4062134;29;19958;-60
2024/02/21 02:45:55;;;;;;;;;;;16.10;84.80;;;;;;4074472;29;19934;-59
2024/02/21 02:48:38;;;;;;;;;;;16.10;85.00;;;;;;4074908;29;20669;-60
2024/02/21 02:51:18;;;;;;;;;;;16.10;85.00;;;;;;4075055;29;19934;-60
2024/02/21 02:53:59;;;;;;;;;;;16.10;84.90;;;;;;4075121;29;20070;-60
2024/02/21 02:56:41;;;;;;;;;;;16.10;84.80;;;;;;4074226;29;20380;-58
2024/02/21 02:59:22;;;;;;;;;;;16.10;84.80;;;;;;4074515;29;19932;-52
2024/02/21 03:02:02;;;;;;;;;;;16.10;84.70;;;;;;4083601;29;20296;-60
2024/02/21 03:04:43;;;;;;;;;;;16.10;85.70;;;;;;4058450;29;19943;-60
2024/02/21 03:07:25;;;;;;;;;;;16.10;84.80;;;;;;4047200;29;19934;-59
2024/02/21 03:10:06;;;;;;;;;;;16.20;84.80;;;;;;4058447;29;19933;-59
2024/02/21 03:12:48;;;;;;;;;;;16.20;84.80;;;;;;4070253;29;19977;-59
2024/02/21 03:15:29;;;;;;;;;;;16.20;84.70;;;;;;4073820;29;19934;-59
2024/02/21 03:18:09;;;;;;;;;;;16.20;84.50;;;;;;4073755;29;19929;-58
2024/02/21 03:20:50;;;;;;;;;;;16.20;84.40;;;;;;4073788;29;19941;-52
2024/02/21 03:23:31;;;;;;;;;;;16.30;84.30;;;;;;4074069;29;19933;-52
2024/02/21 03:26:12;;;;;;;;;;;16.30;84.30;;;;;;4073597;29;19930;-50
2024/02/21 03:28:54;;;;;;;;;;;16.20;84.30;;;;;;4073182;29;20113;-50
2024/02/21 03:31:34;;;;;;;;;;;16.20;84.50;;;;;;4073916;29;19933;-50
2024/02/21 03:34:15;;;;;;;;;;;16.20;84.50;;;;;;4073975;29;19930;-52
2024/02/21 03:36:55;;;;;;;;;;;16.20;84.70;;;;;;4073798;29;19934;-50
2024/02/21 03:39:37;;;;;;;;;;;16.10;85.70;;;;;;4074434;29;19959;-59
2024/02/21 03:42:18;;;;;;;;;;;16.10;85.10;;;;;;4074285;29;20273;-59
2024/02/21 03:45:00;;;;;;;;;;;16.20;85.20;;;;;;4073215;28;19934;-59
2024/02/21 03:47:40;;;;;;;;;;;16.20;85.00;;;;;;4057836;29;20396;-60
2024/02/21 03:50:21;;;;;;;;;;;16.20;84.90;;;;;;4058395;29;19930;-60
2024/02/21 03:53:01;;;;;;;;;;;16.20;84.80;;;;;;4063518;29;19929;-60
2024/02/21 03:55:42;;;;;;;;;;;16.20;84.80;;;;;;4074280;29;20016;-60
2024/02/21 03:58:23;;;;;;;;;;;16.30;84.70;;;;;;4073829;29;19986;-60
2024/02/21 04:01:05;;;;;;;;;;;16.30;84.40;;;;;;4073668;29;19929;-60
2024/02/21 04:03:46;;;;;;;;;;;16.40;84.30;;;;;;4073236;29;19933;-60
2024/02/21 04:06:26;;;;;;;;;;;16.40;85.00;;;;;;4068057;29;20001;-60
2024/02/21 04:09:07;;;;;;;;;;;16.40;84.10;;;;;;4073955;29;19929;-60
2024/02/21 04:11:48;;;;;;;;;;;16.40;84.10;;;;;;4074051;29;19950;-60
2024/02/21 04:14:28;;;;;;;;;;;16.30;84.10;;;;;;4073773;29;19954;-61
2024/02/21 04:17:10;;;;;;;;;;;16.30;84.20;;;;;;4073863;29;19933;-60
2024/02/21 04:19:51;;;;;;;;;;;16.30;84.40;;;;;;4073426;29;19933;-60
2024/02/21 04:22:31;;;;;;;;;;;16.20;84.50;;;;;;4061603;29;20391;-60
2024/02/21 04:25:13;;;;;;;;;;;16.20;84.70;;;;;;4073463;29;19973;-59
2024/02/21 04:27:53;;;;;;;;;;;16.10;84.80;;;;;;4057134;29;20025;-59
2024/02/21 04:30:34;;;;;;;;;;;16.10;85.10;;;;;;4057204;29;19934;-60
2024/02/21 04:33:16;;;;;;;;;;;16.10;85.10;;;;;;4056939;29;20228;-59
2024/02/21 04:35:58;;;;;;;;;;;16.20;85.00;;;;;;4060702;29;20492;-59
2024/02/21 04:38:39;;;;;;;;;;;16.20;84.90;;;;;;4073820;29;19946;-59
2024/02/21 04:41:21;;;;;;;;;;;16.20;84.80;;;;;;4075464;29;20356;-59
2024/02/21 04:44:03;;;;;;;;;;;16.20;84.80;;;;;;4075961;29;20296;-60
2024/02/21 04:46:44;;;;;;;;;;;16.30;84.70;;;;;;4076001;29;19969;-57
2024/02/21 04:49:26;;;;;;;;;;;16.30;84.60;;;;;;4076172;29;19997;-59
2024/02/21 04:52:06;;;;;;;;;;;16.30;84.60;;;;;;4075223;29;19937;-59
2024/02/21 04:54:47;;;;;;;;;;;16.30;84.50;;;;;;4076218;29;19930;-59
2024/02/21 04:57:27;;;;;;;;;;;16.40;84.50;;;;;;4076177;29;20070;-59
2024/02/21 05:00:08;;;;;;;;;;;16.40;84.30;;;;;;4076372;29;20055;-59
2024/02/21 05:02:49;;;;;;;;;;;16.40;84.30;;;;;;4076381;29;19930;-60
2024/02/21 05:05:31;;;;;;;;;;;16.40;84.20;;;;;;4076476;29;19930;-60
2024/02/21 05:08:12;;;;;;;;;;;16.40;84.10;;;;;;4076395;29;19933;-49
2024/02/21 05:10:53;;;;;;;;;;;16.50;84.00;;;;;;4075853;29;19930;-49
2024/02/21 05:13:34;;;;;;;;;;;16.50;84.00;;;;;;4075945;29;19929;-50
2024/02/21 05:16:14;;;;;;;;;;;16.50;84.80;;;;;;4075795;29;19933;-49
2024/02/21 05:18:56;;;;;;;;;;;16.50;83.80;;;;;;4075323;29;19930;-50
2024/02/21 05:21:38;;;;;;;;;;;16.50;83.70;;;;;;4075183;29;20304;-48
2024/02/21 05:24:19;;;;;;;;;;;16.50;83.70;;;;;;4069468;29;19929;-50
2024/02/21 05:26:59;;;;;;;;;;;16.50;83.70;;;;;;4075307;29;19949;-49
2024/02/21 05:29:40;;;;;;;;;;;16.50;83.70;;;;;;4075628;29;19929;-49
2024/02/21 05:32:21;;;;;;;;;;;16.50;83.80;;;;;;4075586;29;19933;-52
2024/02/21 05:35:01;;;;;;;;;;;16.40;83.90;;;;;;4075802;29;19930;-53
2024/02/21 05:37:46;;;;;;;;;;;16.40;84.00;;;;;;4069199;29;19982;-50
2024/02/21 05:40:27;;;;;;;;;;;16.30;84.20;;;;;;4063833;29;20303;-51
2024/02/21 05:43:08;;;;;;;;;;;16.30;84.50;;;;;;4075936;29;20332;-49
2024/02/21 05:45:49;;;;;;;;;;;16.30;84.80;;;;;;4063593;29;19937;-49
2024/02/21 05:48:30;;;;;;;;;;;16.30;84.70;;;;;;4075387;29;19934;-51
2024/02/21 05:51:11;;;;;;;;;;;16.40;84.60;;;;;;4067510;29;19934;-49
2024/02/21 05:53:53;;;;;;;;;;;16.40;84.30;;;;;;4074955;29;19934;-48
2024/02/21 05:56:34;;;;;;;;;;;16.40;84.20;;;;;;4075263;29;19933;-52
2024/02/21 05:59:15;;;;;;;;;;;16.50;84.20;;;;;;4075197;29;20058;-50
2024/02/21 06:01:57;;;;;;;;;;;16.50;84.10;;;;;;4075245;29;20465;-49
2024/02/21 06:04:39;;;;;;;;;;;16.50;84.10;;;;;;4075127;29;19938;-49
2024/02/21 06:07:20;;;;;;;;;;;16.50;84.00;;;;;;4072497;29;20407;-48
2024/02/21 06:10:02;;;;;;;;;;;16.50;84.00;;;;;;4075478;29;19934;-49
2024/02/21 06:12:43;;;;;;;;;;;16.50;84.00;;;;;;4074972;29;19946;-48
2024/02/21 06:15:24;;;;;;;;;;;16.50;84.10;;;;;;4074792;29;19978;-49
2024/02/21 06:18:06;;;;;;;;;;;16.50;84.00;;;;;;4074711;29;19961;-49
2024/02/21 06:20:48;;;;;;;;;;;16.50;84.00;;;;;;4074951;29;20493;-48
2024/02/21 06:23:29;;;;;;;;;;;16.50;84.00;;;;;;4074744;29;20059;-50
2024/02/21 06:26:11;;;;;;;;;;;16.50;84.00;;;;;;4074596;29;19977;-50
2024/02/21 06:28:52;;;;;;;;;;;16.50;84.30;;;;;;4074722;29;19934;-48
2024/02/21 06:31:33;;;;;;;;;;;16.50;84.30;;;;;;4074633;29;19938;-49
2024/02/21 06:34:13;;;;;;;;;;;16.50;84.10;;;;;;4063014;29;20284;-49
2024/02/21 06:36:54;;;;;;;;;;;16.50;84.00;;;;;;4059179;29;19934;-49
2024/02/21 06:39:37;;;;;;;;;;;16.60;83.90;;;;;;4058787;29;20329;-49
2024/02/21 06:42:19;;;;;;;;;;;16.50;83.90;;;;;;4058782;29;19934;-49
2024/02/21 06:44:59;;;;;;;;;;;16.50;84.00;;;;;;4060170;29;20404;-48
2024/02/21 06:47:40;;;;;;;;;;;16.60;84.10;;;;;;4073855;29;20063;-48
2024/02/21 06:50:21;;;;;;;;;;;16.60;84.10;;;;;;4074728;29;19930;-51
2024/02/21 06:53:01;;;;;;;;;;;16.60;84.00;;;;;;4074847;29;19941;-59
2024/02/21 06:55:42;;;;;;;;;;;16.60;84.90;;;;;;4064479;29;19944;-59
2024/02/21 06:58:24;;;;;;;;;;;16.60;84.10;;;;;;4072370;29;19934;-48
2024/02/21 07:01:05;;;;;;;;;;;16.60;84.20;;;;;;4073399;29;20016;-47
2024/02/21 07:03:46;;;;;;;;;;;16.60;84.20;;;;;;4074822;28;20300;-47
2024/02/21 07:06:27;;;;;;;;;;;16.60;84.20;;;;;;4074747;28;20319;-58
2024/02/21 07:09:09;;;;;;;;;;;16.60;84.10;;;;;;4074662;29;19934;-47
2024/02/21 07:11:50;;;;;;;;;;;16.60;84.20;;;;;;4074084;29;20719;-60
2024/02/21 07:14:32;;;;;;;;;;;16.60;84.30;;;;;;4074689;29;19930;-59
2024/02/21 07:17:13;;;;;;;;;;;16.60;84.20;;;;;;4070503;29;19933;-60
2024/02/21 07:19:56;;;;;;;;;;;16.60;84.20;;;;;;4058389;29;19947;-59
2024/02/21 07:22:37;;;;;;;;;;;16.60;84.20;;;;;;4065281;29;19930;-59
2024/02/21 07:25:18;;;;;;;;;;;16.60;84.10;;;;;;4073604;29;19933;-50
2024/02/21 07:27:59;;;;;;;;;;;16.50;84.10;;;;;;4072749;29;19965;-59
2024/02/21 07:30:41;;;;;;;;;;;16.50;84.30;;;;;;4058011;29;20392;-60
2024/02/21 07:33:22;;;;;;;;;;;16.50;84.40;;;;;;4066339;28;20288;-58
2024/02/21 07:36:06;;;;;;;;;;;16.50;84.30;;;;;;4061823;29;19974;-58
2024/02/21 07:38:47;;;;;;;;;;;16.60;84.00;;;;;;4055348;29;20010;-60
2024/02/21 07:41:28;;;;;;;;;;;16.60;83.50;;;;;;4058288;29;19982;-60
2024/02/21 07:44:09;;;;;;;;;;;16.60;83.90;;;;;;4046540;29;20490;-49
2024/02/21 07:46:51;;;;;;;;;;;16.60;82.70;;;;;;4070963;29;19986;-60
2024/02/21 07:49:32;;;;;;;;;;;16.60;82.30;;;;;;4042659;29;19930;-60
2024/02/21 07:52:13;;;;;;;;;;;16.70;82.80;;;;;;4043104;29;19973;-60
2024/02/21 07:54:54;;;;;;;;;;;16.70;81.50;;;;;;4052888;29;19988;-48
2024/02/21 07:57:35;;;;;;;;;;;16.70;81.30;;;;;;4048700;29;19935;-48
2024/02/21 08:00:19;;;;;;;;;;;16.70;80.80;;;;;;4051749;29;19934;-60
2024/02/21 08:03:02;;;;;;;;;;;16.70;80.70;;;;;;4058556;29;19930;-60
2024/02/21 08:05:42;;;;;;;;;;;16.70;80.60;;;;;;4046401;29;20379;-48
2024/02/21 08:08:24;;;;;;;;;;;16.70;81.20;;;;;;4057282;29;19934;-51
2024/02/21 08:11:05;;;;;;;;;;;16.70;80.00;;;;;;4058392;29;20020;-51
2024/02/21 08:13:46;;;;;;;;;;;16.80;79.70;;;;;;4063737;29;19958;-48
2024/02/21 08:16:27;;;;;;;;;;;16.80;79.40;;;;;;4054820;29;19938;-51
2024/02/21 08:19:10;;;;;;;;;;;16.70;79.30;;;;;;4060568;29;20292;-48
2024/02/21 08:21:50;;;;;;;;;;;16.70;79.20;;;;;;4059849;29;19930;-48
2024/02/21 08:24:31;;;;;;;;;;;16.60;79.10;;;;;;4048524;29;20352;-60
2024/02/21 08:27:12;;;;;;;;;;;16.60;79.20;;;;;;4064666;29;20435;-60
2024/02/21 08:29:53;;;;;;;;;;;16.50;79.30;;;;;;4058847;29;20072;-60
2024/02/21 08:32:35;;;;;;;;;;;16.50;79.60;;;;;;4067652;29;19930;-59
2024/02/21 08:35:18;;;;;;;;;;;16.50;79.80;;;;;;4068921;29;19930;-51
2024/02/21 08:37:59;;;;;;;;;;;16.50;79.70;;;;;;4065463;29;19934;-60
2024/02/21 08:40:40;;;;;;;;;;;16.50;79.40;;;;;;4059015;29;20755;-60
2024/02/21 08:43:21;;;;;;;;;;;16.60;79.20;;;;;;4056479;29;20910;-60
2024/02/21 08:46:01;;;;;;;;;;;16.60;78.90;;;;;;4055992;29;19934;-59
2024/02/21 09:03:58;;;;;;;13.88;3.75;;;16.80;76.60;;;;;;4081489;28;20535;-39
2024/02/21 09:06:42;;;;;;;15.07;5.03;;;16.80;76.90;;;;;;4086862;28;20063;-38
2024/02/21 09:09:23;;;;;;;7.47;4.25;;;16.80;77.00;;;;;;4089831;28;20058;-38
2024/02/21 09:12:08;;;;;;;11.32;5.80;;;16.80;77.10;;;;;;4088848;28;20106;-38
2024/02/21 09:14:50;;;;;;;13.70;5.72;;;16.70;77.10;;;;;;4085967;28;20570;-38
2024/02/21 09:17:31;;;;;;;14.40;6.55;;;16.70;77.20;;;;;;4075850;28;20230;-38
2024/02/21 09:20:16;;;;;;;8.82;4.90;;;16.60;77.10;;;;;;4081762;28;20075;-39
2024/02/21 09:22:57;;;;;;;11.57;5.88;;;16.50;77.20;;;;;;4083175;28;20054;-38
2024/02/21 09:25:38;;;;;;;14.65;7.05;;;16.50;77.30;;;;;;4085515;28;20195;-38
2024/02/21 09:28:19;;;;;;;10.68;6.00;;;16.40;77.20;;;;;;4085188;28;20097;-38
2024/02/21 09:31:01;;;;;;;6.25;5.20;;;16.40;78.30;;;;;;4085592;28;20275;-38
2024/02/21 09:33:42;;;;;;;12.45;6.78;;;16.40;77.60;;;;;;4084576;28;20051;-38
2024/02/21 09:36:25;;;;;;;10.82;5.07;;;16.30;77.60;;;;;;4084789;28;20059;-38
2024/02/21 09:39:06;;;;;;;9.75;6.07;;;16.20;77.60;;;;;;4080790;28;20058;-38
2024/02/21 09:41:53;;;;;;;11.65;6.90;;;16.20;77.70;;;;;;4083542;28;20090;-38
2024/02/21 09:44:38;;;;;;;13.70;7.28;;;16.20;78.10;;;;;;4084568;28;20565;-40
2024/02/21 09:47:23;;;;;;;16.00;8.77;;;16.10;78.10;;;;;;4083818;28;20058;-37
2024/02/21 09:50:06;;;;;;;15.65;7.07;;;16.10;78.20;;;;;;4083979;28;20491;-38
2024/02/21 09:52:49;;;;;;;8.82;5.85;;;16.10;78.30;;;;;;4084155;28;20161;-39
2024/02/21 09:55:34;;;;;;;9.57;7.55;;;16.00;78.40;;;;;;4083804;28;20050;-38
2024/02/21 09:58:16;;;;;;;9.60;7.63;;;16.00;78.50;;;;;;4084555;28;20718;-38
2024/02/21 10:00:57;;;;;;;;;;;16.00;78.50;;;;;;4079373;28;20058;-38
2024/02/21 10:03:38;;;;;;;15.25;7.55;;;16.10;79.40;;;;;;4073822;29;19973;-38
2024/02/21 10:06:19;;;;;;;11.43;8.27;;;16.00;78.50;;;;;;4073218;29;20063;-38
2024/02/21 10:09:02;;;;;;;13.93;8.90;;;16.00;78.50;;;;;;4070719;29;20046;-39
2024/02/21 10:11:43;;;;;;;10.38;8.32;;;16.00;78.40;;;;;;4066593;28;20394;-39
2024/02/21 10:14:24;;;;;;;14.85;8.68;;;16.10;78.50;;;;;;4073944;28;21018;-39
2024/02/21 10:17:09;;;;;;;15.43;9.18;;;16.10;78.40;;;;;;4070537;28;20463;-39
2024/02/21 10:19:52;;;;;;;14.25;8.75;;;16.10;78.30;;;;;;4074424;29;20067;-39
2024/02/21 10:22:35;;;;;;;10.80;8.07;;;16.10;77.80;;;;;;4073046;29;20078;-39
2024/02/21 10:25:19;;;;;;;13.70;9.57;;;16.10;77.70;;;;;;4060443;29;20179;-39
2024/02/21 10:28:00;;;;;;;11.93;8.98;;;16.10;77.50;;;;;;4072394;29;20202;-39
2024/02/21 10:30:51;;;;;;;14.43;8.07;;;16.10;77.40;;;;;;4074676;29;20059;-39
2024/02/21 10:33:32;;;;;;;13.48;10.57;;;16.10;77.40;;;;;;4073194;29;20066;-38
2024/02/21 10:36:14;;;;;;;14.55;6.30;;;16.00;77.30;;;;;;4072493;29;20511;-39
2024/02/21 10:38:56;;;;;;;13.25;9.50;;;16.00;77.30;;;;;;4074059;28;20043;-38
2024/02/21 10:41:39;;;;;;;;;;;16.10;77.20;;;;;;4070199;29;20094;-38
2024/02/21 10:44:21;;;;;;;16.90;9.02;;;16.10;77.00;;;;;;4070644;28;19934;-39
2024/02/21 10:47:08;;;;;;;16.98;9.13;;;16.10;76.80;;;;;;4073751;29;20051;-39
2024/02/21 10:49:58;;;;;;;13.02;9.77;;;16.10;76.70;;;;;;4073598;29;20067;-39
2024/02/21 10:52:49;;;;;;;17.60;10.15;;;16.00;76.60;;;;;;4071940;28;20062;-39
2024/02/21 10:55:36;;;;;;;12.25;7.72;;;16.00;77.50;;;;;;4073908;28;20054;-39
2024/02/21 10:58:20;;;;;;;11.75;5.13;;;16.00;77.60;;;;;;4071636;28;20062;-39
2024/02/21 11:01:03;;;;;;;17.08;9.93;;;16.00;76.80;;;;;;4071759;29;20066;-39
2024/02/21 11:03:46;;;;;;;15.55;9.20;;;16.00;76.80;;;;;;4059013;28;20110;-39
2024/02/21 11:06:28;;;;;;;17.10;9.75;;;15.90;76.80;;;;;;4072705;29;20055;-39
2024/02/21 11:09:10;;;;;;;14.13;7.95;;;15.80;76.80;;;;;;4071790;28;20082;-39
2024/02/21 11:11:52;;;;;;;8.65;5.30;;;15.80;76.90;;;;;;4067811;28;20407;-39
2024/02/21 11:14:37;;;;;;;13.55;8.70;;;15.80;77.10;;;;;;4066028;29;20520;-38
2024/02/21 11:17:21;;;;;;;13.75;9.48;;;15.80;77.10;;;;;;4070811;29;20059;-38
2024/02/21 11:20:12;;;;;;;13.02;8.45;;;15.80;77.20;;;;;;4069094;29;20058;-38
2024/02/21 11:22:55;;;;;;;12.07;7.45;;;15.70;77.30;;;;;;4072730;29;20490;-42
2024/02/21 11:25:36;;;;;;;11.80;7.75;;;15.70;77.60;;;;;;4072183;28;20086;-49
2024/02/21 11:28:26;;;;;;;14.93;7.72;;;15.70;77.60;;;;;;4070531;29;20499;-55
2024/02/21 11:31:14;;;;;;;6.65;4.65;;;15.70;77.50;;;;;;4071016;28;20062;-53
2024/02/21 11:33:57;;;;;;;12.15;8.43;;;15.70;77.60;;;;;;4069252;28;20135;-53
2024/02/21 11:36:48;;;;;;;12.77;8.07;;;15.60;77.50;;;;;;4070817;29;20066;-55
2024/02/21 11:39:29;;;;;;;12.23;9.23;;;15.60;77.50;;;;;;4072166;29;20086;-54
2024/02/21 11:42:12;;;;;;;15.30;8.57;;;15.60;77.70;;;;;;4071886;29;20295;-53
2024/02/21 11:44:56;;;;;;;14.20;8.80;;;15.60;77.70;;;;;;4072541;29;20310;-52
2024/02/21 11:47:41;;;;;;;12.48;7.47;;;15.50;77.60;;;;;;4073077;28;20062;-52
2024/02/21 11:50:24;;;;;;;12.80;8.20;;;15.50;77.60;;;;;;4071672;28;20082;-53
2024/02/21 11:53:05;;;;;;;13.45;5.75;;;15.50;77.60;;;;;;4072251;28;20063;-52
2024/02/21 11:55:47;;;;;;;13.85;7.93;;;15.40;78.40;;;;;;4071599;28;20518;-52
2024/02/21 11:58:28;;;;;;;13.35;8.25;;;15.50;77.70;;;;;;4072230;29;20073;-54
2024/02/21 12:01:09;;;;;;;10.02;6.70;;;15.40;77.60;;;;;;4067156;29;20062;-54
2024/02/21 12:03:51;;;;;;;7.78;6.57;;;15.40;77.60;;;;;;4071097;29;20055;-52
2024/02/21 12:06:34;;;;;;;11.02;6.30;;;15.40;77.60;;;;;;4071966;29;20074;-52
2024/02/21 12:09:16;;;;;;;9.23;5.00;;;15.30;77.50;;;;;;4071689;29;20063;-54
2024/02/21 12:12:01;;;;;;;12.90;7.05;;;15.40;77.50;;;;;;4071955;28;20513;-52
2024/02/21 12:14:42;;;;;;;12.93;6.70;;;15.30;77.50;;;;;;4067706;29;20523;-54
2024/02/21 12:17:23;;;;;;;12.57;6.70;;;15.30;77.60;;;;;;4066415;29;20055;-54
2024/02/21 12:20:08;;;;;;;12.40;5.72;;;15.30;77.60;;;;;;4072133;29;20215;-49
2024/02/21 12:22:51;;;;;;;12.13;5.75;;;15.30;77.80;;;;;;4071848;29;20551;-53
2024/02/21 12:25:32;;;;;;;9.20;6.00;;;15.30;78.30;;;;;;4071149;29;20136;-52
2024/02/21 12:28:14;;;;;;;10.73;6.30;;;15.30;78.70;;;;;;4071730;29;20171;-52
2024/02/21 12:30:55;;;;;;;14.27;6.88;;;15.30;79.70;;;;;;4071645;29;20063;-52
2024/02/21 12:33:36;;;;;;;9.98;6.00;;;15.20;78.80;;;;;;4070526;28;20071;-53
2024/02/21 12:36:18;;;;;;;14.65;6.53;;;15.20;78.70;;;;;;4069567;28;20058;-51
2024/02/21 12:39:01;;;;;;;8.05;5.07;;;15.20;78.70;;;;;;4070230;29;20069;-50
2024/02/21 12:41:44;;;;;;;8.35;5.53;;;15.20;78.80;;;;;;4071726;29;20106;-54
2024/02/21 12:44:24;;;;;;;4.50;2.92;;;15.20;78.90;;;;;;4071031;29;20062;-49
2024/02/21 12:47:05;;;;;;;8.82;5.07;;;15.20;78.80;;;;;;4069452;29;20627;-52
2024/02/21 12:49:47;;;;;;;;;;;15.20;78.70;;;;;;4068254;28;20125;-52
2024/02/21 12:52:29;;;;;;;9.38;6.20;;;15.10;78.60;;;;;;4072899;28;20406;-56
2024/02/21 12:55:12;;;;;;;13.40;6.20;;;15.10;78.50;;;;;;4071783;28;20144;-50
2024/02/21 12:57:53;;;;;;;7.78;5.65;;;15.10;78.50;;;;;;4070602;29;20464;-51
2024/02/21 13:00:35;;;;;;;7.78;5.25;;;15.10;78.60;;;;;;4069393;29;20277;-53
2024/02/21 13:03:16;;;;;;;8.88;5.35;;;15.10;78.60;;;;;;4070718;28;20271;-51
2024/02/21 13:05:59;;;;;;;9.00;5.72;;;15.10;78.60;;;;;;4068301;28;20063;-39
2024/02/21 13:08:41;;;;;;;7.53;4.20;;;15.10;78.40;;;;;;4070682;29;20051;-39
2024/02/21 13:11:21;;;;;;;8.13;4.93;;;15.10;78.40;;;;;;4071765;29;20491;-39
2024/02/21 13:14:02;;;;;;;7.10;4.88;;;15.00;78.20;;;;;;4071013;29;20062;-39
2024/02/21 13:16:43;;;;;;;9.05;4.85;;;15.00;78.10;;;;;;4071504;29;20075;-40
2024/02/21 13:19:25;;;;;;;7.93;5.00;;;15.00;78.10;;;;;;4067650;29;20051;-39
2024/02/21 13:22:06;;;;;;;9.60;4.53;;;15.00;78.00;;;;;;4071271;29;20066;-39
2024/02/21 13:24:49;;;;;;;;;;;15.00;78.00;;;;;;4070490;28;20492;-39
2024/02/21 13:27:30;;;;;;;9.20;3.95;;;15.00;78.00;;;;;;4066519;29;20058;-39
2024/02/21 13:30:12;;;;;;;4.88;3.35;;;15.00;78.00;;;;;;4071204;29;20089;-39
2024/02/21 13:32:54;;;;;;;5.57;4.28;;;15.10;78.10;;;;;;4071341;29;20067;-54
2024/02/21 13:35:36;;;;;;;4.28;2.72;;;15.10;77.80;;;;;;4068508;28;20226;-52
2024/02/21 13:38:19;;;;;;;3.78;3.08;;;15.10;77.50;;;;;;4073649;28;20062;-50
2024/02/21 13:41:01;;;;;;;4.43;3.83;;;15.20;77.10;;;;;;4071683;28;20099;-52
2024/02/21 13:43:42;;;;;;;5.00;2.97;;;15.30;76.60;;;;;;4074033;29;20519;-53
2024/02/21 13:46:23;;;;;;;4.57;3.13;;;15.40;76.20;;;;;;4074594;29;20067;-55
2024/02/21 13:49:07;;;;;;;3.28;2.22;;;15.40;75.90;;;;;;4074795;28;20385;-49
2024/02/21 13:51:48;;;;;;;5.07;3.53;;;15.40;75.50;;;;;;4073794;28;20098;-52
2024/02/21 13:54:29;;;;;;;3.17;2.67;;;15.50;75.20;;;;;;4075017;28;20183;-50
2024/02/21 13:57:11;;;;;;;4.88;3.75;;;15.50;75.00;;;;;;4074194;29;20074;-50
2024/02/21 13:59:52;;;;;;;4.80;3.13;;;15.40;74.80;;;;;;4073736;29;20198;-52
2024/02/21 14:02:33;;;;;;;2.67;2.42;;;15.40;74.80;;;;;;4073909;29;20087;-49
2024/02/21 14:05:14;;;;;;;3.42;3.13;;;15.40;74.90;;;;;;4071937;29;20086;-49
2024/02/21 14:07:56;;;;;;;3.08;2.78;;;15.40;74.90;;;;;;4074415;29;20110;-52
2024/02/21 14:10:37;;;;;;;5.00;2.60;;;15.40;75.00;;;;;;4074013;28;20101;-50
2024/02/21 14:13:20;;;;;;;3.55;3.25;;;15.40;75.10;;;;;;4073513;28;20082;-49
2024/02/21 14:16:01;;;;;;;4.10;3.45;;;15.30;75.90;;;;;;4073472;29;20055;-49
2024/02/21 14:18:43;;;;;;;2.55;2.05;;;15.30;75.00;;;;;;4072361;29;20067;-53
2024/02/21 14:21:24;;;;;;;4.20;3.03;;;15.30;75.90;;;;;;4057911;29;20512;-51
2024/02/21 14:24:05;;;;;;;4.45;3.92;;;15.20;74.70;;;;;;4072180;29;20568;-51
2024/02/21 14:26:46;;;;;;;6.13;3.47;;;15.20;74.70;;;;;;4073540;29;20055;-55
2024/02/21 14:29:29;;;;;;;2.97;2.78;;;15.20;74.70;;;;;;4060257;29;20110;-55
2024/02/21 14:32:11;;;;;;;5.80;4.03;;;15.10;74.60;;;;;;4069521;28;20123;-52
2024/02/21 14:34:52;;;;;;;4.65;4.05;;;15.10;74.70;;;;;;4074115;29;20070;-50
2024/02/21 14:37:33;;;;;;;5.22;3.90;;;15.10;75.00;;;;;;4061780;29;20403;-52
2024/02/21 14:40:14;;;;;;;4.00;3.22;;;15.10;75.30;;;;;;4071607;29;20141;-49
2024/02/21 14:42:55;;;;;;;5.60;3.42;;;15.10;75.40;;;;;;4071839;29;20062;-53
2024/02/21 14:45:38;;;;;;;4.22;3.83;;;15.10;76.00;;;;;;4072627;29;20496;-40
2024/02/21 14:48:20;;;;;;;6.50;3.55;;;15.00;76.40;;;;;;4071627;28;20058;-39
2024/02/21 14:51:01;;;;;;;4.63;3.90;;;15.10;77.00;;;;;;4073082;29;20519;-40
2024/02/21 14:53:43;;;;;;;4.93;3.60;;;15.10;77.20;;;;;;4057572;29;20051;-40
2024/02/21 14:56:24;;;;;;;4.53;3.67;;;15.10;77.20;;;;;;4068949;29;20099;-40
2024/02/21 14:59:05;;;;;;;4.93;3.83;;;15.20;77.40;;;;;;4073408;29;20407;-49
2024/02/21 15:01:50;;;;;;;5.70;3.72;;;15.10;77.50;;;;;;4070871;28;20086;-55
2024/02/21 15:04:32;;;;;;;6.63;3.90;;;15.20;77.80;;;;;;4071741;28;20198;-51
2024/02/21 15:07:13;;;;;;;6.18;3.70;;;15.20;77.80;;;;;;4072986;29;20096;-51
2024/02/21 15:09:54;;;;;;;7.82;3.90;;;15.30;77.70;;;;;;4070828;29;20059;-50
2024/02/21 15:12:36;;;;;;;5.50;4.25;;;15.40;77.50;;;;;;4074671;29;20079;-50